Time;durP1;ratioP1;P1;durP2;ratioP2;P2;SDS_P1;SDS_P2;PMS_P1;PMS_P2;Temp;Humidity;BMP_temperature;BMP_pressure;BME280_temperature;BME280_humidity;BME280_pressure;Samples;Min_cycle;Max_cycle;Signal;HPM_P1;HPM_P2
2023/10/11 00:00:40;;;;;;;8.65;4.07;;;;;;;-144.05;48.34;56946.53;5093065;28;20027;-83
2023/10/11 00:03:17;;;;;;;5.57;3.10;;;18.90;99.90;;;-144.05;48.08;56957.16;5104150;28;20029;-85
2023/10/11 00:05:46;;;;;;;8.52;4.30;;;19.70;99.90;;;-144.05;47.89;56976.28;5104096;28;20043;-85
2023/10/11 00:08:29;;;;;;;9.43;3.55;;;;;;;-144.05;47.81;56950.78;5094876;28;20506;-85
2023/10/11 00:10:59;;;;;;;8.38;4.05;;;19.30;99.90;;;-144.05;47.67;56978.41;5098917;28;20600;-84
2023/10/11 00:13:32;;;;;;;12.27;3.88;;;18.90;99.90;;;-144.05;47.76;56952.91;5099116;28;20032;-84
2023/10/11 00:16:07;;;;;;;11.75;3.83;;;19.10;99.90;;;-144.05;47.93;56980.53;5099217;28;20035;-85
2023/10/11 00:18:44;;;;;;;9.43;3.90;;;;;;;-144.05;47.92;56961.41;5081293;28;20043;-86
2023/10/11 00:21:15;;;;;;;11.23;3.83;;;;;;;-144.05;47.92;56938.03;5080420;28;20024;-85
2023/10/11 00:23:48;;;;;;;11.70;3.85;;;18.70;99.90;;;-144.05;47.77;56989.00;5096616;28;20020;-84
2023/10/11 00:26:16;;;;;;;8.70;3.35;;;;;;;-144.05;47.48;56916.81;5093503;28;20031;-84
2023/10/11 00:28:43;;;;;;;8.77;3.80;;;;;;;-144.05;47.93;56910.44;5094332;28;20024;-84
2023/10/11 00:31:17;;;;;;;8.77;4.30;;;21.00;99.90;;;-144.05;48.25;56950.78;5088863;28;20032;-85
2023/10/11 00:33:44;;;;;;;7.60;4.03;;;;;;;-144.05;48.06;56948.66;5086516;28;20028;-86
2023/10/11 00:36:11;;;;;;;10.23;3.75;;;;;;;-144.05;48.21;56950.78;5079459;28;20108;-84
2023/10/11 00:38:47;;;;;;;12.02;3.67;;;19.70;99.90;;;-144.05;48.41;56938.03;5076599;28;20070;-87
2023/10/11 00:41:20;;;;;;;9.32;4.50;;;;;;;-144.05;48.41;56931.66;5111238;28;20118;-83
2023/10/11 00:43:52;;;;;;;9.20;3.72;;;19.70;99.90;;;-144.05;48.54;56959.28;5085730;28;20119;-82
2023/10/11 00:49:16;;;;;;;9.68;4.28;;;;;;;-144.05;48.50;56921.06;5099493;28;20054;-83
2023/10/11 00:51:48;;;;;;;10.77;3.83;;;19.40;99.90;;;-144.05;48.70;56957.16;5077556;28;20024;-87
2023/10/11 00:54:16;;;;;;;10.25;3.83;;;19.60;99.90;;;-144.05;48.72;56982.66;5092199;28;20024;-85
2023/10/11 00:56:47;;;;;;;8.07;3.70;;;;;;;-144.05;48.58;56925.28;5097579;28;20024;-84
2023/10/11 00:59:19;;;;;;;12.20;3.97;;;;;;;-144.05;48.70;56961.41;5096621;28;20036;-87
2023/10/11 01:01:45;;;;;;;10.18;3.97;;;;;;;-144.05;48.59;56935.91;5079468;28;20028;-85
2023/10/11 01:04:15;;;;;;;8.57;3.95;;;;;;;-144.05;48.59;56959.28;5097726;28;20154;-85
2023/10/11 01:06:42;;;;;;;9.95;3.78;;;;;;;-144.05;48.68;56963.53;5076875;28;20024;-84
2023/10/11 01:09:17;;;;;;;8.05;4.30;;;;;;;-144.05;48.94;56940.16;5097651;28;20494;-84
2023/10/11 01:11:47;;;;;;;9.57;4.18;;;;;;;-144.05;48.59;56940.16;5098440;28;20054;-83
2023/10/11 01:14:14;;;;;;;13.18;3.67;;;;;;;-144.05;48.45;56957.16;5076536;28;20040;-86
2023/10/11 01:16:41;;;;;;;10.82;3.80;;;;;;;-144.05;48.20;56938.03;5096045;28;20038;-87
2023/10/11 01:19:11;;;;;;;15.13;5.00;;;;;;;-144.05;48.13;56923.19;5096549;28;20474;-85
2023/10/11 01:21:44;;;;;;;9.93;3.67;;;;;;;-144.05;48.30;56938.03;5080334;28;20036;-83
2023/10/11 01:24:10;;;;;;;9.02;3.88;;;;;;;-144.05;48.37;56938.03;5098169;28;20032;-88
2023/10/11 01:26:37;;;;;;;13.23;3.92;;;;;;;-144.05;48.32;56946.53;5080026;28;20039;-84
2023/10/11 01:29:05;;;;;;;12.98;3.58;;;;;;;-144.05;48.29;56938.03;5098068;28;20043;-85
2023/10/11 01:31:33;;;;;;;9.27;4.07;;;;;;;-144.05;48.40;56918.94;5083791;28;20047;-85
2023/10/11 01:33:59;;;;;;;10.90;4.07;;;;;;;-144.05;48.10;56946.53;5094290;28;20065;-83
2023/10/11 01:36:26;;;;;;;11.35;4.43;;;;;;;-144.05;48.33;56942.28;5098468;28;20028;-85
2023/10/11 01:38:53;;;;;;;11.27;4.03;;;;;;;-144.05;48.59;56952.91;5098519;28;20105;-84
2023/10/11 01:41:26;;;;;;;9.68;3.80;;;19.20;99.90;;;-144.05;48.56;56976.28;5079755;28;20051;-82
2023/10/11 01:43:54;;;;;;;13.13;4.82;;;;;;;-144.05;48.39;56942.28;5097786;28;20043;-86
2023/10/11 01:46:26;;;;;;;10.02;3.50;;;19.40;99.90;;;-144.05;48.42;56963.53;5077281;28;20039;-85
2023/10/11 01:49:01;;;;;;;11.60;4.20;;;;;;;-144.05;48.77;56944.41;5097958;28;20028;-86
2023/10/11 01:51:28;;;;;;;9.27;4.43;;;;;;;-144.05;48.77;56942.28;5075964;28;20116;-86
2023/10/11 01:54:12;;;;;;;11.35;3.75;;;19.10;99.90;;;-144.05;48.62;56980.53;5096216;28;20024;-83
2023/10/11 01:56:39;;;;;;;11.88;4.10;;;19.30;99.90;;;-144.05;49.13;56967.78;5078099;28;20036;-81
2023/10/11 01:59:05;;;;;;;13.00;4.22;;;;;;;-144.05;49.37;56925.28;5072007;28;20025;-85
2023/10/11 02:01:41;;;;;;;8.82;4.57;;;;;;;-144.05;49.43;56933.78;5078782;28;20513;-81
2023/10/11 02:04:17;;;;;;;14.65;4.47;;;;;;;-144.05;49.25;56944.41;5077979;28;20032;-85
2023/10/11 02:06:43;;;;;;;;;;;18.00;99.90;;;-144.05;49.09;56967.78;5096798;28;20502;-84
2023/10/11 02:09:11;;;;;;;12.00;4.25;;;;;;;-144.05;49.46;56918.94;5078310;28;19908;-83
2023/10/11 02:11:41;;;;;;;12.93;3.90;;;;;;;-144.05;49.43;56969.91;5096626;28;20031;-86
2023/10/11 02:14:07;;;;;;;10.23;4.55;;;;;;;-144.05;49.69;56961.41;5096815;28;20024;-84
2023/10/11 02:16:36;;;;;;;7.65;4.15;;;;;;;-144.05;50.00;56933.78;5095211;28;20039;-82
2023/10/11 02:19:02;;;;;;;13.73;5.35;;;;;;;-144.05;49.93;56974.16;5092649;28;20047;-83
2023/10/11 02:21:29;;;;;;;11.93;4.80;;;;;;;-144.05;49.74;56931.66;5094200;28;20024;-83
2023/10/11 02:23:59;;;;;;;14.60;4.05;;;;;;;-144.05;49.91;56938.03;5095502;28;20028;-85
2023/10/11 02:26:34;;;;;;;14.48;4.95;;;;;;;-144.05;49.90;56916.81;5096132;28;20107;-84
2023/10/11 02:29:03;;;;;;;11.23;4.78;;;;;;;-144.05;49.96;56948.66;5084361;28;20028;-83
2023/10/11 02:31:33;;;;;;;9.63;4.60;;;;;;;-144.05;49.97;56948.66;5094760;28;20031;-82
2023/10/11 02:34:14;;;;;;;10.50;4.10;;;;;;;-144.05;50.12;56967.78;5094415;28;20409;-83
2023/10/11 02:36:56;;;;;;;14.13;4.28;;;17.80;99.90;;;-144.05;50.17;56957.16;5089120;28;20024;-84
2023/10/11 02:39:31;;;;;;;13.07;4.22;;;;;;;-144.05;50.30;56901.94;5067359;28;20131;-87
2023/10/11 02:41:58;;;;;;;8.90;4.13;;;;;;;-144.05;50.29;56952.91;5075557;28;20032;-85
2023/10/11 02:44:26;;;;;;;11.88;3.97;;;;;;;-144.05;49.94;56978.41;5076740;28;20058;-83
2023/10/11 02:46:53;;;;;;;9.23;4.80;;;;;;;-144.05;49.92;56933.78;5076067;28;20024;-85
2023/10/11 02:49:20;;;;;;;9.13;3.90;;;;;;;-144.05;49.78;56929.53;5094694;28;20058;-86
2023/10/11 02:52:05;;;;;;;7.85;3.42;;;20.10;99.90;;;-144.05;49.90;56946.53;5111405;28;20038;-83
2023/10/11 02:54:38;;;;;;;12.10;4.10;;;;;;;-144.05;49.92;56950.78;5075870;28;20036;-86
2023/10/11 02:57:20;;;;;;;12.38;4.28;;;19.50;99.90;;;-144.05;49.82;56935.91;5096061;28;20032;-81
2023/10/11 02:59:50;;;;;;;6.85;3.58;;;;;;;-144.05;49.97;56931.66;5096457;28;20016;-87
2023/10/11 03:02:16;;;;;;;10.43;4.40;;;;;;;-144.05;50.34;56950.78;5092703;28;20111;-87
2023/10/11 03:04:43;;;;;;;11.82;3.95;;;;;;;-144.05;50.21;56950.78;5076508;28;20046;-87
2023/10/11 03:07:21;;;;;;;6.93;3.90;;;19.90;99.90;;;-144.05;50.41;56955.03;5094541;28;20478;-83
2023/10/11 03:09:48;;;;;;;10.35;4.30;;;;;;;-144.05;50.43;56948.66;5074661;28;20142;-82
2023/10/11 03:12:30;;;;;;;12.65;4.00;;;;;;;-144.05;50.37;56967.78;5095006;28;20027;-85
2023/10/11 03:14:56;;;;;;;9.48;3.92;;;;;;;-144.05;50.34;56946.53;5073368;28;20101;-85
2023/10/11 03:17:23;;;;;;;11.93;5.13;;;18.20;99.90;;;-144.05;50.50;56946.53;5082900;28;20431;-84
2023/10/11 03:19:52;;;;;;;9.57;3.80;;;;;;;-144.05;50.16;56935.91;5089613;28;20107;-83
2023/10/11 03:22:21;;;;;;;8.93;4.47;;;;;;;-144.05;50.21;56935.91;5095119;28;20063;-84
2023/10/11 03:25:12;;;;;;;10.05;3.92;;;19.90;99.90;;;-144.05;50.31;56969.91;5095311;28;20024;-82
2023/10/11 03:27:48;;;;;;;9.30;3.63;;;;;;;-144.05;50.74;56944.41;5090061;28;20051;-86
2023/10/11 03:30:15;;;;;;;12.07;3.88;;;;;;;-144.05;50.62;56959.28;5095213;28;20455;-84
2023/10/11 03:32:44;;;;;;;19.02;5.25;;;;;;;-144.05;50.66;56938.03;5095260;28;20119;-81
2023/10/11 03:35:12;;;;;;;13.70;4.15;;;;;;;-144.05;50.35;56959.28;5095149;28;20119;-81
2023/10/11 03:37:38;;;;;;;13.10;4.57;;;;;;;-144.05;50.37;56942.28;5082169;28;20032;-84
2023/10/11 03:40:26;;;;;;;10.18;3.67;;;;;;;-144.05;50.18;56967.78;5094321;28;20052;-86
2023/10/11 03:42:59;;;;;;;11.25;3.83;;;;;;;-144.05;50.32;56929.53;5092583;28;20044;-85
2023/10/11 03:45:27;;;;;;;13.70;4.43;;;;;;;-144.05;50.44;56963.53;5096363;28;20073;-85
2023/10/11 03:47:56;;;;;;;13.07;4.47;;;;;;;-144.05;50.44;56946.53;5077146;28;20035;-86
2023/10/11 03:50:32;;;;;;;11.45;3.92;;;;;;;-144.05;50.47;56918.94;5077518;28;20059;-84
2023/10/11 03:53:07;;;;;;;11.50;3.95;;;;;;;-144.05;50.34;56921.06;5088739;28;20028;-85
2023/10/11 03:55:34;;;;;;;9.65;4.20;;;;;;;-144.05;50.65;56908.31;5077049;28;20024;-83
2023/10/11 03:58:00;;;;;;;10.75;4.50;;;;;;;-144.05;50.47;56950.78;5076253;28;20038;-85
2023/10/11 04:00:28;;;;;;;7.85;4.57;;;;;;;-144.05;50.15;56921.06;5095367;28;20074;-80
2023/10/11 04:02:58;;;;;;;11.18;5.10;;;;;;;-144.05;50.27;56957.16;5095251;28;20424;-83
2023/10/11 04:05:40;;;;;;;10.88;4.50;;;;;;;-144.05;50.24;56942.28;5090743;28;20055;-82
2023/10/11 04:08:10;;;;;;;15.35;4.57;;;;;;;-144.05;50.12;56938.03;5077916;28;20034;-84
2023/10/11 04:10:43;;;;;;;13.10;4.30;;;;;;;-144.05;50.45;56923.19;5077734;28;20024;-81
2023/10/11 04:13:14;;;;;;;8.00;3.90;;;;;;;-144.05;50.37;56942.28;5082861;28;20020;-86
2023/10/11 04:15:42;;;;;;;11.50;4.32;;;;;;;-144.05;50.54;56944.41;5094807;28;20035;-82
2023/10/11 04:18:20;;;;;;;7.70;3.70;;;;;;;-144.05;50.53;56944.41;5073859;28;20055;-87
2023/10/11 04:20:53;;;;;;;11.27;4.70;;;;;;;-144.05;50.68;56948.66;5093597;28;20401;-83
2023/10/11 04:23:24;;;;;;;12.73;5.03;;;;;;;-144.05;50.56;56927.41;5087535;28;20103;-84
2023/10/11 04:25:50;;;;;;;8.88;4.03;;;;;;;-144.05;50.38;56910.44;5093861;28;20024;-85
2023/10/11 04:28:16;;;;;;;8.70;3.63;;;;;;;-144.05;50.49;56957.16;5091044;28;20032;-86
2023/10/11 04:30:46;;;;;;;11.00;3.75;;;;;;;-144.05;50.78;56914.69;5076506;28;20028;-81
2023/10/11 04:33:22;;;;;;;9.82;3.50;;;;;;;-144.05;50.65;56935.91;5094213;28;20397;-82
2023/10/11 04:35:57;;;;;;;10.00;4.10;;;;;;;-144.05;50.84;56923.19;5094111;28;20027;-84
2023/10/11 04:38:24;;;;;;;8.35;3.22;;;;;;;-144.05;50.66;56942.28;5079596;28;20032;-83
2023/10/11 04:40:53;;;;;;;6.95;3.60;;;;;;;-144.05;50.88;56935.91;5093851;28;20039;-87
2023/10/11 04:43:26;;;;;;;7.72;3.80;;;;;;;-144.05;50.85;56946.53;5096893;28;20453;-82
2023/10/11 04:46:00;;;;;;;20.35;5.13;;;18.90;99.90;;;-144.05;50.53;56921.06;5079833;28;20024;-84
2023/10/11 04:48:36;;;;;;;8.80;3.53;;;;;;;-144.05;50.72;56925.28;5081692;28;20056;-83
2023/10/11 04:51:07;;;;;;;9.05;4.00;;;;;;;-144.05;50.62;56933.78;5077048;28;20024;-85
2023/10/11 04:53:54;;;;;;;11.70;4.15;;;;;;;-144.05;51.34;56976.28;5095548;28;20122;-84
2023/10/11 04:59:19;;;;;;;10.32;4.15;;;;;;;-144.05;51.45;56942.28;5100321;28;20048;-80
2023/10/11 05:04:26;;;;;;;10.98;4.75;;;;;;;-144.05;51.30;56959.28;5098950;28;20542;-86
2023/10/11 05:06:56;;;;;;;8.90;3.65;;;;;;;-144.05;51.49;56931.66;5094829;28;20035;-84
2023/10/11 05:09:38;;;;;;;8.45;3.97;;;;;;;-144.05;51.54;56942.28;5088635;28;20097;-84
2023/10/11 05:12:19;;;;;;;10.07;3.63;;;18.60;99.90;;;-144.05;51.61;56967.78;5091862;28;20082;-86
2023/10/11 05:19:57;;;;;;;10.75;4.18;;;19.30;99.90;;;-144.05;51.07;56946.53;5097096;28;20032;-84
2023/10/11 05:32:48;;;;;;;8.77;3.50;;;;;;;-144.05;51.31;56938.03;5090142;28;20485;-83
2023/10/11 05:35:24;;;;;;;16.33;3.97;;;;;;;-144.05;51.53;56940.16;5097882;28;20032;-83
2023/10/11 05:51:58;;;;;;;12.13;4.40;;;;;;;-144.05;50.65;56931.66;5033139;28;20037;-85
2023/10/11 05:54:34;;;;;;;9.63;4.38;;;;;;;-144.05;50.31;56961.41;5071687;28;20036;-86
2023/10/11 05:57:04;;;;;;;;;;;19.00;99.90;;;-144.05;50.15;56927.41;5085802;28;20040;-82
2023/10/11 05:59:35;;;;;;;11.70;4.07;;;;;;;-144.05;49.79;56935.91;5095017;28;19912;-85
2023/10/11 06:02:07;;;;;;;11.05;4.13;;;;;;;-144.05;49.81;56950.78;5090214;28;20028;-82
2023/10/11 06:04:39;;;;;;;10.38;3.45;;;;;;;-144.05;49.73;56942.28;5072485;28;20396;-84
2023/10/11 06:07:13;;;;;;;7.45;3.25;;;;;;;-144.05;49.55;56931.66;5075660;28;20039;-83
2023/10/11 06:09:43;;;;;;;13.18;3.58;;;;;;;-144.05;49.76;56942.28;5089895;28;20028;-82
2023/10/11 06:12:22;;;;;;;11.25;4.35;;;;;;;-144.05;49.65;56959.28;5075955;28;20028;-82
2023/10/11 06:14:54;;;;;;;13.73;4.05;;;;;;;-144.05;49.74;56946.53;5090950;28;20489;-84
2023/10/11 06:17:21;;;;;;;9.25;3.60;;;;;;;-144.05;49.43;56955.03;5091561;28;20401;-84
2023/10/11 06:19:54;;;;;;;12.63;3.95;;;;;;;-144.05;49.47;56910.44;5077753;28;20051;-83
2023/10/11 06:22:28;;;;;;;14.85;4.47;;;17.40;99.90;;;-144.05;50.31;56946.53;5095594;28;20032;-86
2023/10/11 06:24:58;;;;;;;11.38;4.00;;;;;;;-144.05;50.17;56935.91;5095704;28;20027;-84
2023/10/11 06:30:10;;;;;;;9.10;3.70;;;;;;;-144.05;50.12;56933.78;5095528;28;20039;-81
2023/10/11 06:32:40;;;;;;;10.30;4.32;;;;;;;-144.05;50.22;56976.28;5076943;28;20051;-84
2023/10/11 06:35:16;;;;;;;9.68;3.42;;;;;;;-144.05;49.77;56933.78;5075684;28;20086;-87
2023/10/11 06:37:42;;;;;;;11.00;3.70;;;;;;;-144.05;49.95;56942.28;5078553;28;20466;-86
2023/10/11 06:40:13;;;;;;;10.43;4.35;;;;;;;-144.05;49.67;56940.16;5074053;28;20032;-84
2023/10/11 06:42:41;;;;;;;10.98;3.97;;;;;;;-144.05;48.92;56940.16;5097284;28;20028;-86
2023/10/11 06:45:16;;;;;;;11.77;4.22;;;;;;;-144.05;49.58;56959.28;5074670;28;20031;-86
2023/10/11 06:47:43;;;;;;;8.23;3.38;;;;;;;-144.05;49.17;56929.53;5078964;28;20053;-82
2023/10/11 06:50:13;;;;;;;11.30;3.83;;;;;;;-144.05;49.04;56957.16;5074990;28;20083;-85
2023/10/11 06:52:45;;;;;;;9.77;3.33;;;;;;;-144.05;48.52;56952.91;5076729;28;20402;-86
2023/10/11 06:55:16;;;;;;;13.38;3.67;;;;;;;-144.05;48.68;56938.03;5071374;28;20031;-84
2023/10/11 06:57:50;;;;;;;9.55;3.28;;;;;;;-144.05;48.26;56944.41;5097243;28;20500;-84
2023/10/11 07:00:29;;;;;;;8.15;3.30;;;;;;;-144.05;47.98;56929.53;5078141;28;20066;-83
2023/10/11 07:03:26;;;;;;;9.02;3.63;;;19.00;99.90;;;-144.05;47.84;56955.03;5089510;28;20051;-85
2023/10/11 07:06:00;;;;;;;7.85;3.28;;;;;;;-144.05;47.29;56929.53;5093844;28;20474;-86
2023/10/11 07:08:35;;;;;;;9.80;3.50;;;18.70;99.90;;;-144.05;46.64;56980.53;5096271;28;20047;-83
2023/10/11 07:11:17;;;;;;;10.57;3.53;;;19.00;99.90;;;-144.05;46.49;56942.28;5110312;28;20150;-84
2023/10/11 07:13:54;;;;;;;9.05;3.70;;;;;;;-144.05;45.86;56904.06;5107011;28;20086;-86
2023/10/11 07:16:27;;;;;;;9.43;3.92;;;;;;;-144.05;46.06;56916.81;5078072;28;20036;-81
2023/10/11 07:18:56;;;;;;;13.57;3.80;;;;;;;-144.05;45.95;56942.28;5089963;28;20482;-85
2023/10/11 07:21:40;;;;;;;9.63;3.63;;;;;;;-144.05;46.16;56925.28;5085188;28;20122;-84
2023/10/11 07:24:19;;;;;;;10.00;3.67;;;;;;;-144.05;45.53;56921.06;5080283;28;20032;-80
2023/10/11 07:29:13;;;;;;;9.05;3.67;;;18.90;99.90;;;-144.05;45.01;56946.53;5096594;28;20028;-85
2023/10/11 07:31:49;;;;;;;10.05;3.78;;;18.80;99.90;;;-144.05;45.17;56955.03;5094622;28;20490;-87
2023/10/11 07:34:18;;;;;;;6.20;3.60;;;19.30;99.90;;;-144.05;44.80;56944.41;5095328;28;20028;-84
2023/10/11 07:36:48;;;;;;;8.77;3.25;;;;;;;-144.05;45.01;56948.66;5095346;28;20023;-86
2023/10/11 07:39:19;;;;;;;9.90;3.95;;;;;;;-144.05;44.75;56935.91;5094383;28;20492;-84
2023/10/11 07:41:49;;;;;;;8.43;3.58;;;;;;;-144.05;44.53;56933.78;5093850;28;20069;-86
2023/10/11 07:44:19;;;;;;;17.08;3.50;;;;;;;-144.05;44.32;56959.28;5094600;28;20035;-84
2023/10/11 07:46:46;;;;;;;9.32;3.58;;;20.50;99.90;;;-144.05;44.34;56931.66;5072463;28;20089;-84
2023/10/11 07:49:22;;;;;;;8.65;3.15;;;19.90;99.90;;;-144.05;43.75;56967.78;5078072;28;20513;-84
2023/10/11 07:51:53;;;;;;;13.48;4.15;;;;;;;-144.05;43.87;56935.91;5091785;28;20021;-84
2023/10/11 07:54:21;;;;;;;12.60;3.60;;;;;;;-144.05;43.41;56967.78;5092898;28;20028;-84
2023/10/11 07:56:55;;;;;;;10.68;3.60;;;20.10;99.90;;;-144.05;43.22;56997.50;5096240;28;20027;-86
2023/10/11 07:59:26;;;;;;;7.97;3.20;;;;;;;-144.05;42.64;56948.66;5077960;28;20111;-84
2023/10/11 08:01:58;;;;;;;8.35;3.35;;;;;;;-144.05;42.75;56965.66;5091999;28;20028;-87
2023/10/11 08:04:28;;;;;;;11.63;3.10;;;;;;;-144.05;42.75;56961.41;5077788;28;20036;-89
2023/10/11 08:06:59;;;;;;;6.65;3.38;;;;;;;-144.05;42.38;56959.28;5095522;28;20028;-85
2023/10/11 08:12:28;;;;;;;8.45;3.67;;;;;;;-144.05;42.13;56965.66;5044259;28;20029;-85
2023/10/11 08:14:56;;;;;;;7.47;2.90;;;;;;;-144.05;42.14;56982.66;5077898;28;20437;-88
2023/10/11 08:17:27;;;;;;;9.52;3.45;;;;;;;-144.05;41.79;56933.78;5096965;28;20130;-86
2023/10/11 08:19:56;;;;;;;13.32;4.13;;;;;;;-144.05;41.98;56955.03;5085548;28;20039;-87
2023/10/11 08:22:25;;;;;;;11.68;3.15;;;;;;;-144.05;41.84;56984.78;5098076;28;20035;-85
2023/10/11 08:24:56;;;;;;;15.35;3.80;;;;;;;-144.05;41.10;56980.53;5079634;28;20470;-90
2023/10/11 08:27:27;;;;;;;7.35;2.85;;;;;;;-144.05;40.66;56993.25;5087739;28;20031;-88
2023/10/11 08:30:17;;;;;;;11.25;3.35;;;;;;;-144.05;41.40;56963.53;5100502;28;20046;-89
2023/10/11 08:32:46;;;;;;;9.35;3.13;;;;;;;-144.05;40.88;56976.28;5093880;28;20122;-87
2023/10/11 08:35:36;;;;;;;8.63;3.20;;;;;;;-144.05;41.21;56950.78;5099041;28;20031;-86
2023/10/11 08:38:04;;;;;;;8.73;3.20;;;;;;;-144.05;40.72;56995.38;5087681;28;20032;-86
2023/10/11 08:40:37;;;;;;;8.77;3.40;;;;;;;-144.05;40.80;56972.03;5084170;28;20063;-85
2023/10/11 08:43:06;;;;;;;11.27;3.25;;;;;;;-144.05;40.85;56989.00;5085952;28;20020;-87
2023/10/11 08:45:49;;;;;;;12.02;3.40;;;;;;;-144.05;40.07;56969.91;5099420;28;20169;-88
2023/10/11 08:48:17;;;;;;;7.72;3.08;;;;;;;-144.05;40.29;56982.66;5096149;28;20032;-88
2023/10/11 08:50:52;;;;;;;10.52;3.75;;;;;;;-144.05;40.35;57006.00;5100653;28;20036;-87
2023/10/11 08:53:21;;;;;;;7.00;3.17;;;20.70;99.90;;;-144.05;39.97;56967.78;5087687;28;20489;-88
2023/10/11 08:55:56;;;;;;;8.10;3.22;;;;;;;-144.05;40.09;56989.00;5100614;28;20064;-86
2023/10/11 08:58:25;;;;;;;7.45;3.20;;;;;;;-144.05;40.24;56984.78;5097148;28;20474;-89
2023/10/11 09:00:55;;;;;;;9.20;4.03;;;;;;;-144.05;39.95;56976.28;5084588;28;20036;-86
2023/10/11 09:03:28;;;;;;;7.20;3.33;;;;;;;-144.05;40.45;56989.00;5095314;28;20022;-88
2023/10/11 09:06:00;;;;;;;8.38;3.20;;;;;;;-144.05;39.88;56991.13;5091290;28;20050;-86
2023/10/11 09:08:33;;;;;;;7.40;3.25;;;;;;;-144.05;39.66;56963.53;5092069;28;20024;-84
2023/10/11 09:11:11;;;;;;;11.77;3.78;;;;;;;-144.05;39.48;57003.88;5110231;28;20043;-84
2023/10/11 09:13:39;;;;;;;10.63;3.58;;;;;;;-144.05;39.59;56993.25;5083145;28;20028;-89
2023/10/11 09:16:12;;;;;;;8.95;3.25;;;;;;;-144.05;39.47;56980.53;5080224;28;20482;-86
2023/10/11 09:18:41;;;;;;;8.20;3.17;;;;;;;-144.05;39.86;57001.75;5091589;28;20050;-80
2023/10/11 09:21:17;;;;;;;9.80;3.58;;;;;;;-144.05;39.95;57010.25;5103061;28;20102;-87
2023/10/11 09:23:49;;;;;;;12.60;3.38;;;;;;;-144.05;39.72;56978.41;5075900;28;20089;-86
2023/10/11 09:26:35;;;;;;;7.90;3.70;;;;;;;-144.05;39.44;56980.53;5087690;28;20028;-87
2023/10/11 09:29:05;;;;;;;;;;;23.10;99.90;;;-144.05;39.29;56997.50;5099139;28;20020;-87
2023/10/11 09:31:33;;;;;;;8.10;3.30;;;;;;;-144.05;39.84;56984.78;5099839;28;19977;-86
2023/10/11 09:34:07;;;;;;;8.50;3.70;;;;;;;-144.05;39.66;56986.91;5082524;28;20028;-89
2023/10/11 09:36:34;;;;;;;8.13;3.13;;;;;;;-144.05;39.30;56969.91;5100448;28;20024;-86
2023/10/11 09:39:03;;;;;;;10.48;3.85;;;;;;;-144.05;39.23;56967.78;5082300;28;20424;-88
2023/10/11 09:41:40;;;;;;;15.40;3.80;;;22.30;99.90;;;-144.05;39.62;57012.38;5082373;28;20031;-87
2023/10/11 09:44:12;;;;;;;8.07;3.50;;;22.20;99.90;;;-144.05;39.11;57001.75;5081222;28;20148;-87
2023/10/11 09:46:43;;;;;;;7.35;3.13;;;;;;;-144.05;39.27;57010.25;5084152;28;20530;-88
2023/10/11 09:49:12;;;;;;;12.80;3.83;;;;;;;-144.05;39.16;56993.25;5099514;28;20028;-87
2023/10/11 09:51:46;;;;;;;9.75;3.30;;;;;;;-144.05;39.32;56997.50;5089464;28;20038;-89
2023/10/11 09:54:14;;;;;;;11.63;3.63;;;;;;;-144.05;39.34;56984.78;5097451;28;20036;-86
2023/10/11 09:57:08;;;;;;;8.35;3.10;;;;;;;-144.05;39.01;57008.13;5098867;28;20052;-88
2023/10/11 10:00:10;;;;;;;11.65;3.85;;;23.50;99.90;;;-144.05;39.50;57001.75;5079554;28;20032;-84
2023/10/11 10:02:39;;;;;;;7.55;4.07;;;;;;;-144.05;39.24;56963.53;5078636;28;20024;-85
2023/10/11 10:05:06;;;;;;;9.57;3.85;;;;;;;-144.05;39.29;57006.00;5097711;28;20047;-87
2023/10/11 10:10:17;;;;;;;10.60;3.22;;;;;;;-144.05;39.10;56989.00;5096960;28;20024;-88
2023/10/11 10:12:56;;;;;;;10.65;3.33;;;;;;;-144.05;39.03;56967.78;5095231;28;20059;-86
2023/10/11 10:15:36;;;;;;;10.02;3.58;;;24.50;99.90;;;-144.05;38.82;56984.78;5088329;28;20032;-86
2023/10/11 10:18:20;;;;;;;11.90;4.07;;;;;;;-144.05;38.97;56984.78;5081217;28;20141;-87
2023/10/11 10:21:01;;;;;;;8.00;3.45;;;23.60;99.90;;;-144.05;39.13;57025.13;5091253;28;20020;-90
2023/10/11 10:23:30;;;;;;;13.25;3.95;;;;;;;-144.05;39.26;57010.25;5098513;28;20527;-87
2023/10/11 10:26:06;;;;;;;14.80;4.07;;;23.60;99.90;;;-144.05;39.06;56976.28;5096953;28;20115;-88
2023/10/11 10:28:32;;;;;;;8.77;3.38;;;;;;;-144.05;38.66;56982.66;5095008;28;20024;-87
2023/10/11 10:31:22;;;;;;;12.48;4.15;;;24.70;99.90;;;-144.05;39.01;57027.25;5078216;28;20040;-86
2023/10/11 10:34:13;;;;;;;9.93;3.78;;;;;;;-144.05;38.58;57025.13;5088547;28;20039;-88
2023/10/11 10:36:40;;;;;;;18.35;4.65;;;;;;;-144.05;38.26;57044.25;5080737;28;20051;-87
2023/10/11 10:39:33;;;;;;;8.48;3.53;;;;;;;-144.05;38.58;56997.50;5078201;28;20064;-89
2023/10/11 10:42:15;;;;;;;9.98;3.75;;;;;;;-144.05;38.68;57008.13;5097082;28;20111;-87
2023/10/11 10:44:53;;;;;;;13.55;4.28;;;23.60;99.90;;;-144.05;39.75;57014.50;5081410;28;20077;-86
2023/10/11 10:47:28;;;;;;;11.40;4.00;;;;;;;-144.05;39.75;57003.88;5096742;28;20032;-89
2023/10/11 10:49:56;;;;;;;13.57;4.15;;;;;;;-144.05;39.50;57008.13;5078035;28;20031;-86
2023/10/11 10:52:26;;;;;;;11.38;3.47;;;;;;;-144.05;39.47;56993.25;5077441;28;20020;-88
2023/10/11 10:55:05;;;;;;;10.57;3.72;;;23.20;99.90;;;-144.05;39.11;56997.50;5095675;28;20436;-87
2023/10/11 10:57:38;;;;;;;11.95;3.80;;;;;;;-144.05;39.53;57014.50;5096931;28;20054;-86
2023/10/11 11:00:20;;;;;;;8.57;4.03;;;;;;;-144.05;39.48;56980.53;5076057;28;20024;-89
2023/10/11 11:02:47;;;;;;;13.45;4.32;;;;;;;-144.05;39.19;57044.25;5097028;28;20092;-90
2023/10/11 11:05:14;;;;;;;13.18;4.10;;;;;;;-144.05;38.80;57023.00;5096082;28;20028;-84
2023/10/11 11:07:47;;;;;;;11.82;3.30;;;;;;;-144.05;39.65;57006.00;5088954;28;20046;-86
2023/10/11 11:10:23;;;;;;;14.63;3.78;;;;;;;-144.05;39.77;57016.63;5086501;28;20035;-88
2023/10/11 11:12:50;;;;;;;11.80;3.85;;;;;;;-144.05;38.93;57040.00;5100116;28;20042;-87
2023/10/11 11:15:23;;;;;;;13.13;4.10;;;;;;;-144.05;38.71;57044.25;5100478;28;20050;-88
2023/10/11 11:17:51;;;;;;;12.73;4.15;;;23.70;99.90;;;-144.05;38.81;57029.38;5095894;28;20104;-86
2023/10/11 11:22:52;;;;;;;11.90;4.07;;;;;;;-144.05;39.19;57016.63;5104816;28;20028;-85
2023/10/11 11:28:15;;;;;;;9.77;3.47;;;24.80;99.90;;;-144.05;38.58;57031.50;5116311;28;20110;-83
2023/10/11 11:31:05;;;;;;;11.02;3.67;;;24.80;99.90;;;-144.05;38.46;57020.88;5096395;28;20019;-86
2023/10/11 11:33:35;;;;;;;12.82;3.70;;;;;;;-144.05;38.24;57027.25;5095609;28;20020;-90
2023/10/11 11:36:10;;;;;;;11.25;3.85;;;;;;;-144.05;38.80;57020.88;5077484;28;20028;-89
2023/10/11 11:38:37;;;;;;;14.95;4.15;;;;;;;-144.05;38.66;57048.50;5077910;28;20031;-87
2023/10/11 11:41:15;;;;;;;13.32;3.58;;;;;;;-144.05;38.45;57056.97;5082001;28;20176;-87
2023/10/11 11:43:41;;;;;;;15.07;3.85;;;;;;;-144.05;39.03;57042.13;5095662;28;20044;-86
2023/10/11 11:46:08;;;;;;;16.95;4.88;;;;;;;-144.05;38.16;57033.63;5096049;28;20504;-87
2023/10/11 11:48:44;;;;;;;16.02;3.60;;;;;;;-144.05;39.38;57016.63;5096726;28;20111;-85
2023/10/11 11:51:13;;;;;;;;;;;26.10;99.90;;;-144.05;38.80;57014.50;5105307;28;20039;-85
2023/10/11 11:53:46;;;;;;;16.58;3.72;;;;;;;-144.05;38.72;57031.50;5087676;28;20314;-88
2023/10/11 11:56:14;;;;;;;25.92;4.40;;;;;;;-144.05;38.87;57035.75;5100905;28;20051;-88
2023/10/11 11:58:46;;;;;;;20.13;4.72;;;;;;;-144.05;38.94;57029.38;5082774;28;20110;-88
2023/10/11 12:01:17;;;;;;;15.32;3.95;;;;;;;-144.05;38.67;57048.50;5082781;28;20111;-82
2023/10/11 12:03:52;;;;;;;16.13;4.38;;;;;;;-144.05;38.59;57023.00;5083769;28;20042;-85
2023/10/11 12:06:22;;;;;;;12.00;3.90;;;;;;;-144.05;38.29;57046.38;5101341;28;20057;-85
2023/10/11 12:08:59;;;;;;;16.30;3.92;;;24.80;99.90;;;-144.05;38.44;57031.50;5103273;28;20107;-86
2023/10/11 12:11:31;;;;;;;17.13;3.75;;;25.10;99.90;;;-144.05;38.19;57031.50;5086012;28;20028;-85
2023/10/11 12:14:00;;;;;;;14.05;4.18;;;25.30;99.90;;;-144.05;38.28;57061.22;5100950;28;20050;-85